sensor_id;sensor_type;location;lat;lon;timestamp;P1;durP1;ratioP1;P2;durP2;ratioP2
23406;SDS011;11876;53.438;18.942;2022-08-11T00:02:01;2.92;;;2.42;;
23406;SDS011;11876;53.438;18.942;2022-08-11T00:07:04;5.63;;;3.00;;
23406;SDS011;11876;53.438;18.942;2022-08-11T00:12:13;36.45;;;7.88;;
23406;SDS011;11876;53.438;18.942;2022-08-11T00:17:18;56.80;;;9.25;;
23406;SDS011;11876;53.438;18.942;2022-08-11T00:22:21;77.93;;;10.20;;
23406;SDS011;11876;53.438;18.942;2022-08-11T00:27:31;46.78;;;7.93;;
23406;SDS011;11876;53.438;18.942;2022-08-11T00:32:38;20.05;;;5.75;;
23406;SDS011;11876;53.438;18.942;2022-08-11T00:54:07;7.25;;;4.30;;
23406;SDS011;11876;53.438;18.942;2022-08-11T01:15:27;6.30;;;4.00;;
23406;SDS011;11876;53.438;18.942;2022-08-11T01:32:00;9.83;;;4.50;;
23406;SDS011;11876;53.438;18.942;2022-08-11T01:42:59;5.47;;;3.60;;
23406;SDS011;11876;53.438;18.942;2022-08-11T01:48:54;5.60;;;4.20;;
23406;SDS011;11876;53.438;18.942;2022-08-11T01:54:45;5.55;;;4.30;;
23406;SDS011;11876;53.438;18.942;2022-08-11T02:00:09;6.93;;;4.47;;
23406;SDS011;11876;53.438;18.942;2022-08-11T02:27:42;6.82;;;4.45;;
23406;SDS011;11876;53.438;18.942;2022-08-11T02:33:35;7.35;;;4.55;;
23406;SDS011;11876;53.438;18.942;2022-08-11T02:49:25;6.72;;;4.97;;
23406;SDS011;11876;53.438;18.942;2022-08-11T03:06:28;6.80;;;4.82;;
23406;SDS011;11876;53.438;18.942;2022-08-11T03:28:34;7.72;;;4.50;;
23406;SDS011;11876;53.438;18.942;2022-08-11T03:33:54;8.05;;;4.60;;
23406;SDS011;11876;53.438;18.942;2022-08-11T03:39:10;8.32;;;5.10;;
23406;SDS011;11876;53.438;18.942;2022-08-11T03:55:14;15.65;;;6.38;;
23406;SDS011;11876;53.438;18.942;2022-08-11T04:00:36;8.75;;;6.75;;
23406;SDS011;11876;53.438;18.942;2022-08-11T04:16:56;8.98;;;5.28;;
23406;SDS011;11876;53.438;18.942;2022-08-11T04:23:14;6.80;;;4.72;;
23406;SDS011;11876;53.438;18.942;2022-08-11T04:34:03;5.20;;;4.70;;
23406;SDS011;11876;53.438;18.942;2022-08-11T04:39:24;7.50;;;4.82;;
23406;SDS011;11876;53.438;18.942;2022-08-11T04:44:52;11.35;;;4.75;;
23406;SDS011;11876;53.438;18.942;2022-08-11T04:56:21;15.98;;;5.05;;
23406;SDS011;11876;53.438;18.942;2022-08-11T05:07:58;4.18;;;3.55;;
23406;SDS011;11876;53.438;18.942;2022-08-11T05:13:04;5.13;;;4.50;;
23406;SDS011;11876;53.438;18.942;2022-08-11T05:18:27;21.40;;;6.03;;
23406;SDS011;11876;53.438;18.942;2022-08-11T05:23:53;16.00;;;5.05;;
23406;SDS011;11876;53.438;18.942;2022-08-11T05:34:57;12.70;;;5.25;;
23406;SDS011;11876;53.438;18.942;2022-08-11T05:45:27;9.43;;;5.03;;
23406;SDS011;11876;53.438;18.942;2022-08-11T05:51:04;5.57;;;4.40;;
23406;SDS011;11876;53.438;18.942;2022-08-11T05:56:32;8.48;;;4.40;;
23406;SDS011;11876;53.438;18.942;2022-08-11T06:01:35;16.20;;;5.13;;
23406;SDS011;11876;53.438;18.942;2022-08-11T06:06:45;5.57;;;4.07;;
23406;SDS011;11876;53.438;18.942;2022-08-11T06:11:59;12.35;;;5.03;;
23406;SDS011;11876;53.438;18.942;2022-08-11T06:17:05;10.27;;;4.83;;
23406;SDS011;11876;53.438;18.942;2022-08-11T06:22:09;5.35;;;4.07;;
23406;SDS011;11876;53.438;18.942;2022-08-11T06:27:17;6.38;;;4.10;;
23406;SDS011;11876;53.438;18.942;2022-08-11T06:32:33;18.10;;;4.68;;
23406;SDS011;11876;53.438;18.942;2022-08-11T06:37:47;10.43;;;3.78;;
23406;SDS011;11876;53.438;18.942;2022-08-11T06:43:01;5.82;;;3.33;;
23406;SDS011;11876;53.438;18.942;2022-08-11T06:48:21;7.03;;;3.75;;
23406;SDS011;11876;53.438;18.942;2022-08-11T06:53:25;12.40;;;4.40;;
23406;SDS011;11876;53.438;18.942;2022-08-11T06:58:36;14.30;;;3.95;;
23406;SDS011;11876;53.438;18.942;2022-08-11T07:04:03;36.58;;;5.07;;
23406;SDS011;11876;53.438;18.942;2022-08-11T07:14:54;6.10;;;3.08;;
23406;SDS011;11876;53.438;18.942;2022-08-11T07:20:51;13.15;;;3.50;;
23406;SDS011;11876;53.438;18.942;2022-08-11T07:26:33;4.13;;;3.03;;
23406;SDS011;11876;53.438;18.942;2022-08-11T07:31:58;3.95;;;2.58;;
23406;SDS011;11876;53.438;18.942;2022-08-11T07:37:11;5.82;;;2.60;;
23406;SDS011;11876;53.438;18.942;2022-08-11T07:42:26;6.45;;;2.63;;
23406;SDS011;11876;53.438;18.942;2022-08-11T07:47:32;5.45;;;2.88;;
23406;SDS011;11876;53.438;18.942;2022-08-11T07:52:59;10.75;;;2.70;;
23406;SDS011;11876;53.438;18.942;2022-08-11T07:58:03;16.75;;;3.42;;
23406;SDS011;11876;53.438;18.942;2022-08-11T08:03:30;16.60;;;3.20;;
23406;SDS011;11876;53.438;18.942;2022-08-11T08:08:55;9.70;;;2.75;;
23406;SDS011;11876;53.438;18.942;2022-08-11T08:14:17;3.10;;;1.90;;
23406;SDS011;11876;53.438;18.942;2022-08-11T08:19:39;6.75;;;2.20;;
23406;SDS011;11876;53.438;18.942;2022-08-11T08:24:45;2.70;;;2.25;;
23406;SDS011;11876;53.438;18.942;2022-08-11T08:29:48;7.93;;;2.47;;
23406;SDS011;11876;53.438;18.942;2022-08-11T08:35:10;8.93;;;2.50;;
23406;SDS011;11876;53.438;18.942;2022-08-11T08:40:14;2.58;;;2.00;;
23406;SDS011;11876;53.438;18.942;2022-08-11T08:45:18;5.57;;;2.25;;
23406;SDS011;11876;53.438;18.942;2022-08-11T08:50:21;27.85;;;3.78;;
23406;SDS011;11876;53.438;18.942;2022-08-11T08:55:47;3.65;;;1.52;;
23406;SDS011;11876;53.438;18.942;2022-08-11T09:00:53;5.65;;;1.80;;
23406;SDS011;11876;53.438;18.942;2022-08-11T09:05:56;6.80;;;1.50;;
23406;SDS011;11876;53.438;18.942;2022-08-11T09:11:00;77.60;;;7.63;;
23406;SDS011;11876;53.438;18.942;2022-08-11T09:16:23;12.98;;;1.73;;
23406;SDS011;11876;53.438;18.942;2022-08-11T09:21:26;10.40;;;1.88;;
23406;SDS011;11876;53.438;18.942;2022-08-11T09:26:49;7.57;;;1.75;;
23406;SDS011;11876;53.438;18.942;2022-08-11T09:32:03;2.65;;;1.73;;
23406;SDS011;11876;53.438;18.942;2022-08-11T09:37:08;3.95;;;1.77;;
23406;SDS011;11876;53.438;18.942;2022-08-11T09:42:49;5.78;;;1.70;;
23406;SDS011;11876;53.438;18.942;2022-08-11T09:48:11;3.03;;;1.63;;
23406;SDS011;11876;53.438;18.942;2022-08-11T09:53:14;14.27;;;2.58;;
23406;SDS011;11876;53.438;18.942;2022-08-11T09:58:37;10.68;;;2.13;;
23406;SDS011;11876;53.438;18.942;2022-08-11T10:03:43;5.10;;;1.50;;
23406;SDS011;11876;53.438;18.942;2022-08-11T10:08:47;26.27;;;3.42;;
23406;SDS011;11876;53.438;18.942;2022-08-11T10:13:53;5.80;;;1.60;;
23406;SDS011;11876;53.438;18.942;2022-08-11T10:19:35;36.88;;;4.68;;
23406;SDS011;11876;53.438;18.942;2022-08-11T10:24:40;3.80;;;1.17;;
23406;SDS011;11876;53.438;18.942;2022-08-11T10:30:05;8.60;;;1.50;;
23406;SDS011;11876;53.438;18.942;2022-08-11T10:35:28;4.25;;;1.40;;
23406;SDS011;11876;53.438;18.942;2022-08-11T10:40:33;1.80;;;1.25;;
23406;SDS011;11876;53.438;18.942;2022-08-11T10:45:37;2.80;;;1.35;;
23406;SDS011;11876;53.438;18.942;2022-08-11T10:51:00;2.55;;;1.40;;
23406;SDS011;11876;53.438;18.942;2022-08-11T10:56:16;9.90;;;2.17;;
23406;SDS011;11876;53.438;18.942;2022-08-11T11:01:39;2.53;;;1.48;;
23406;SDS011;11876;53.438;18.942;2022-08-11T11:11:55;1.88;;;1.30;;
23406;SDS011;11876;53.438;18.942;2022-08-11T11:17:37;4.43;;;1.60;;
23406;SDS011;11876;53.438;18.942;2022-08-11T11:23:52;1.73;;;1.10;;
23406;SDS011;11876;53.438;18.942;2022-08-11T11:28:37;1.98;;;0.98;;
23406;SDS011;11876;53.438;18.942;2022-08-11T11:34:11;2.55;;;1.17;;
23406;SDS011;11876;53.438;18.942;2022-08-11T11:39:26;3.78;;;1.10;;
23406;SDS011;11876;53.438;18.942;2022-08-11T11:44:30;1.45;;;1.13;;
23406;SDS011;11876;53.438;18.942;2022-08-11T11:49:33;5.10;;;1.42;;
23406;SDS011;11876;53.438;18.942;2022-08-11T11:54:41;1.85;;;1.30;;
23406;SDS011;11876;53.438;18.942;2022-08-11T11:59:44;11.48;;;1.92;;
23406;SDS011;11876;53.438;18.942;2022-08-11T12:05:09;2.42;;;1.10;;
23406;SDS011;11876;53.438;18.942;2022-08-11T12:10:15;2.30;;;1.35;;
23406;SDS011;11876;53.438;18.942;2022-08-11T12:15:19;3.58;;;1.48;;
23406;SDS011;11876;53.438;18.942;2022-08-11T12:20:43;12.30;;;1.83;;
23406;SDS011;11876;53.438;18.942;2022-08-11T12:25:46;4.30;;;1.33;;
23406;SDS011;11876;53.438;18.942;2022-08-11T12:31:28;8.23;;;1.40;;
23406;SDS011;11876;53.438;18.942;2022-08-11T12:36:32;3.17;;;1.30;;
23406;SDS011;11876;53.438;18.942;2022-08-11T12:41:38;1.95;;;1.15;;
23406;SDS011;11876;53.438;18.942;2022-08-11T12:47:02;8.55;;;2.03;;
23406;SDS011;11876;53.438;18.942;2022-08-11T12:52:06;3.25;;;0.93;;
23406;SDS011;11876;53.438;18.942;2022-08-11T13:02:56;6.90;;;1.63;;
23406;SDS011;11876;53.438;18.942;2022-08-11T13:08:18;2.45;;;1.67;;
23406;SDS011;11876;53.438;18.942;2022-08-11T13:13:21;5.22;;;2.08;;
23406;SDS011;11876;53.438;18.942;2022-08-11T13:18:45;2.65;;;1.25;;
23406;SDS011;11876;53.438;18.942;2022-08-11T13:23:48;1.02;;;0.93;;
23406;SDS011;11876;53.438;18.942;2022-08-11T13:29:02;18.98;;;2.50;;
23406;SDS011;11876;53.438;18.942;2022-08-11T13:34:06;1.50;;;1.25;;
23406;SDS011;11876;53.438;18.942;2022-08-11T13:39:12;1.50;;;0.90;;
23406;SDS011;11876;53.438;18.942;2022-08-11T13:44:15;3.38;;;1.30;;
23406;SDS011;11876;53.438;18.942;2022-08-11T13:49:26;2.13;;;1.23;;
23406;SDS011;11876;53.438;18.942;2022-08-11T13:54:35;2.22;;;1.10;;
23406;SDS011;11876;53.438;18.942;2022-08-11T13:59:43;1.40;;;1.10;;
23406;SDS011;11876;53.438;18.942;2022-08-11T14:04:56;8.95;;;1.45;;
23406;SDS011;11876;53.438;18.942;2022-08-11T14:10:03;19.67;;;2.20;;
23406;SDS011;11876;53.438;18.942;2022-08-11T14:15:18;1.33;;;1.10;;
23406;SDS011;11876;53.438;18.942;2022-08-11T14:20:25;1.30;;;1.20;;
23406;SDS011;11876;53.438;18.942;2022-08-11T14:25:50;11.35;;;1.55;;
23406;SDS011;11876;53.438;18.942;2022-08-11T14:31:12;3.30;;;1.38;;
23406;SDS011;11876;53.438;18.942;2022-08-11T14:36:16;3.20;;;1.27;;
23406;SDS011;11876;53.438;18.942;2022-08-11T14:41:19;6.07;;;1.20;;
23406;SDS011;11876;53.438;18.942;2022-08-11T14:47:01;4.15;;;1.10;;
23406;SDS011;11876;53.438;18.942;2022-08-11T14:52:25;20.45;;;3.15;;
23406;SDS011;11876;53.438;18.942;2022-08-11T14:57:30;4.82;;;1.23;;
23406;SDS011;11876;53.438;18.942;2022-08-11T15:02:53;14.45;;;2.30;;
23406;SDS011;11876;53.438;18.942;2022-08-11T15:08:13;2.85;;;1.33;;
23406;SDS011;11876;53.438;18.942;2022-08-11T15:13:19;5.35;;;2.03;;
23406;SDS011;11876;53.438;18.942;2022-08-11T15:18:28;12.95;;;2.25;;
23406;SDS011;11876;53.438;18.942;2022-08-11T15:23:30;5.00;;;1.50;;
23406;SDS011;11876;53.438;18.942;2022-08-11T15:28:52;3.13;;;1.27;;
23406;SDS011;11876;53.438;18.942;2022-08-11T15:34:13;3.95;;;1.35;;
23406;SDS011;11876;53.438;18.942;2022-08-11T15:45:05;5.63;;;1.20;;
23406;SDS011;11876;53.438;18.942;2022-08-11T15:50:29;8.43;;;1.70;;
23406;SDS011;11876;53.438;18.942;2022-08-11T15:55:36;6.37;;;1.53;;
23406;SDS011;11876;53.438;18.942;2022-08-11T16:00:39;8.60;;;1.20;;
23406;SDS011;11876;53.438;18.942;2022-08-11T16:06:11;10.45;;;3.67;;
23406;SDS011;11876;53.438;18.942;2022-08-11T16:11:14;5.47;;;1.60;;
23406;SDS011;11876;53.438;18.942;2022-08-11T16:16:22;16.38;;;2.20;;
23406;SDS011;11876;53.438;18.942;2022-08-11T16:21:26;4.35;;;1.63;;
23406;SDS011;11876;53.438;18.942;2022-08-11T16:26:39;7.85;;;1.85;;
23406;SDS011;11876;53.438;18.942;2022-08-11T16:32:03;6.80;;;1.30;;
23406;SDS011;11876;53.438;18.942;2022-08-11T16:37:18;38.60;;;4.38;;
23406;SDS011;11876;53.438;18.942;2022-08-11T16:42:41;5.57;;;1.48;;
23406;SDS011;11876;53.438;18.942;2022-08-11T16:48:11;2.25;;;1.30;;
23406;SDS011;11876;53.438;18.942;2022-08-11T16:53:34;8.55;;;1.88;;
23406;SDS011;11876;53.438;18.942;2022-08-11T16:59:00;5.43;;;1.30;;
23406;SDS011;11876;53.438;18.942;2022-08-11T17:10:09;11.77;;;1.65;;
23406;SDS011;11876;53.438;18.942;2022-08-11T17:15:55;4.10;;;1.40;;
23406;SDS011;11876;53.438;18.942;2022-08-11T17:21:11;4.00;;;1.90;;
23406;SDS011;11876;53.438;18.942;2022-08-11T17:26:17;8.82;;;1.70;;
23406;SDS011;11876;53.438;18.942;2022-08-11T17:31:22;13.25;;;3.15;;
23406;SDS011;11876;53.438;18.942;2022-08-11T17:36:44;13.82;;;3.53;;
23406;SDS011;11876;53.438;18.942;2022-08-11T17:41:49;8.70;;;2.15;;
23406;SDS011;11876;53.438;18.942;2022-08-11T17:47:12;12.40;;;1.83;;
23406;SDS011;11876;53.438;18.942;2022-08-11T17:52:35;9.27;;;2.15;;
23406;SDS011;11876;53.438;18.942;2022-08-11T17:57:57;74.20;;;8.18;;
23406;SDS011;11876;53.438;18.942;2022-08-11T18:03:18;58.85;;;4.97;;
23406;SDS011;11876;53.438;18.942;2022-08-11T18:08:33;8.02;;;2.40;;
23406;SDS011;11876;53.438;18.942;2022-08-11T18:13:58;15.07;;;3.35;;
23406;SDS011;11876;53.438;18.942;2022-08-11T18:19:22;7.63;;;2.45;;
23406;SDS011;11876;53.438;18.942;2022-08-11T18:24:44;39.58;;;5.78;;
23406;SDS011;11876;53.438;18.942;2022-08-11T18:30:07;33.92;;;4.35;;
23406;SDS011;11876;53.438;18.942;2022-08-11T18:35:30;11.05;;;2.10;;
23406;SDS011;11876;53.438;18.942;2022-08-11T18:40:52;12.27;;;2.42;;
23406;SDS011;11876;53.438;18.942;2022-08-11T18:46:15;17.20;;;3.08;;
23406;SDS011;11876;53.438;18.942;2022-08-11T18:51:38;8.77;;;2.13;;
23406;SDS011;11876;53.438;18.942;2022-08-11T18:57:01;20.00;;;2.80;;
23406;SDS011;11876;53.438;18.942;2022-08-11T19:02:24;12.10;;;2.47;;
23406;SDS011;11876;53.438;18.942;2022-08-11T19:07:50;6.40;;;2.40;;
23406;SDS011;11876;53.438;18.942;2022-08-11T19:13:12;6.38;;;2.22;;
23406;SDS011;11876;53.438;18.942;2022-08-11T19:18:33;10.27;;;2.45;;
23406;SDS011;11876;53.438;18.942;2022-08-11T19:23:56;17.98;;;4.03;;
23406;SDS011;11876;53.438;18.942;2022-08-11T19:29:19;13.02;;;2.58;;
23406;SDS011;11876;53.438;18.942;2022-08-11T19:35:02;9.50;;;2.53;;
23406;SDS011;11876;53.438;18.942;2022-08-11T19:40:25;12.48;;;2.28;;
23406;SDS011;11876;53.438;18.942;2022-08-11T19:45:47;6.78;;;2.33;;
23406;SDS011;11876;53.438;18.942;2022-08-11T19:51:09;14.73;;;2.70;;
23406;SDS011;11876;53.438;18.942;2022-08-11T19:56:31;42.88;;;5.88;;
23406;SDS011;11876;53.438;18.942;2022-08-11T20:01:55;6.80;;;2.33;;
23406;SDS011;11876;53.438;18.942;2022-08-11T20:07:18;11.30;;;2.97;;
23406;SDS011;11876;53.438;18.942;2022-08-11T20:12:41;12.77;;;3.42;;
23406;SDS011;11876;53.438;18.942;2022-08-11T20:18:05;9.10;;;3.22;;
23406;SDS011;11876;53.438;18.942;2022-08-11T20:23:27;3.95;;;2.97;;
23406;SDS011;11876;53.438;18.942;2022-08-11T20:28:49;5.45;;;2.75;;
23406;SDS011;11876;53.438;18.942;2022-08-11T20:34:11;7.07;;;2.53;;
23406;SDS011;11876;53.438;18.942;2022-08-11T20:39:34;6.72;;;2.50;;
23406;SDS011;11876;53.438;18.942;2022-08-11T20:44:56;4.75;;;2.60;;
23406;SDS011;11876;53.438;18.942;2022-08-11T20:55:46;5.25;;;2.72;;
23406;SDS011;11876;53.438;18.942;2022-08-11T21:01:10;15.82;;;3.13;;
23406;SDS011;11876;53.438;18.942;2022-08-11T21:06:41;6.32;;;2.60;;
23406;SDS011;11876;53.438;18.942;2022-08-11T21:12:03;5.35;;;2.35;;
23406;SDS011;11876;53.438;18.942;2022-08-11T21:17:30;5.88;;;3.00;;
23406;SDS011;11876;53.438;18.942;2022-08-11T21:23:07;4.70;;;1.80;;
23406;SDS011;11876;53.438;18.942;2022-08-11T21:28:32;6.82;;;2.53;;
23406;SDS011;11876;53.438;18.942;2022-08-11T21:33:55;4.75;;;2.78;;
23406;SDS011;11876;53.438;18.942;2022-08-11T21:39:18;5.10;;;2.50;;
23406;SDS011;11876;53.438;18.942;2022-08-11T21:44:41;3.45;;;2.35;;
23406;SDS011;11876;53.438;18.942;2022-08-11T21:50:03;4.07;;;2.53;;
23406;SDS011;11876;53.438;18.942;2022-08-11T21:55:27;3.78;;;2.10;;
23406;SDS011;11876;53.438;18.942;2022-08-11T22:00:50;9.20;;;2.53;;
23406;SDS011;11876;53.438;18.942;2022-08-11T22:06:12;14.60;;;2.47;;
23406;SDS011;11876;53.438;18.942;2022-08-11T22:11:35;4.30;;;2.40;;
23406;SDS011;11876;53.438;18.942;2022-08-11T22:17:18;6.32;;;2.75;;
23406;SDS011;11876;53.438;18.942;2022-08-11T22:22:39;3.85;;;2.67;;
23406;SDS011;11876;53.438;18.942;2022-08-11T22:28:01;9.13;;;3.00;;
23406;SDS011;11876;53.438;18.942;2022-08-11T22:33:23;6.22;;;2.47;;
23406;SDS011;11876;53.438;18.942;2022-08-11T22:39:03;4.13;;;2.83;;
23406;SDS011;11876;53.438;18.942;2022-08-11T22:44:26;7.78;;;2.60;;
23406;SDS011;11876;53.438;18.942;2022-08-11T22:49:50;6.40;;;2.60;;
23406;SDS011;11876;53.438;18.942;2022-08-11T22:55:13;5.30;;;2.78;;
23406;SDS011;11876;53.438;18.942;2022-08-11T23:00:37;10.38;;;2.75;;
23406;SDS011;11876;53.438;18.942;2022-08-11T23:06:03;4.10;;;2.40;;
23406;SDS011;11876;53.438;18.942;2022-08-11T23:11:25;4.30;;;2.65;;
23406;SDS011;11876;53.438;18.942;2022-08-11T23:17:07;6.53;;;2.97;;
23406;SDS011;11876;53.438;18.942;2022-08-11T23:22:31;5.50;;;3.05;;
23406;SDS011;11876;53.438;18.942;2022-08-11T23:27:53;3.17;;;2.88;;
23406;SDS011;11876;53.438;18.942;2022-08-11T23:33:16;6.45;;;3.20;;
23406;SDS011;11876;53.438;18.942;2022-08-11T23:38:38;8.20;;;3.70;;
23406;SDS011;11876;53.438;18.942;2022-08-11T23:43:59;6.50;;;3.20;;
23406;SDS011;11876;53.438;18.942;2022-08-11T23:49:21;4.75;;;2.78;;
23406;SDS011;11876;53.438;18.942;2022-08-11T23:54:44;6.85;;;3.03;;
